createdAt,value
2018-12-30T00:03:45.889Z,20.87
2018-12-30T00:08:50.115Z,20.86
2018-12-30T00:13:53.915Z,20.83
2018-12-30T00:18:57.721Z,20.82
2018-12-30T00:24:01.546Z,20.83
2018-12-30T00:29:05.337Z,20.86
2018-12-30T00:34:09.146Z,20.86
2018-12-30T00:39:13.012Z,20.88
2018-12-30T00:44:16.802Z,20.87
2018-12-30T00:49:20.583Z,20.87
2018-12-30T00:54:24.377Z,20.85
2018-12-30T00:59:28.164Z,20.85
2018-12-30T01:04:32.226Z,20.88
2018-12-30T01:09:36.029Z,20.88
2018-12-30T01:14:39.822Z,20.88
2018-12-30T01:19:43.610Z,20.91
2018-12-30T01:24:47.422Z,20.85
2018-12-30T01:29:51.211Z,20.82
2018-12-30T01:34:54.994Z,20.82
2018-12-30T01:39:58.778Z,20.84
2018-12-30T01:45:02.734Z,20.82
2018-12-30T01:50:06.620Z,20.82
2018-12-30T01:55:10.405Z,20.82
2018-12-30T02:00:14.483Z,20.80
2018-12-30T02:05:18.273Z,20.81
2018-12-30T02:10:22.059Z,20.81
2018-12-30T02:15:25.839Z,20.81
2018-12-30T02:20:29.623Z,20.84
2018-12-30T02:25:33.429Z,20.84
2018-12-30T02:30:37.220Z,20.83
2018-12-30T02:35:41.009Z,20.85
2018-12-30T02:40:44.794Z,20.85
2018-12-30T02:45:48.579Z,20.87
2018-12-30T02:50:52.368Z,20.87
2018-12-30T02:55:56.166Z,20.84
2018-12-30T03:00:59.941Z,20.87
2018-12-30T03:06:03.723Z,20.82
2018-12-30T03:11:07.504Z,20.82
2018-12-30T03:16:11.294Z,20.86
2018-12-30T03:21:15.081Z,20.86
2018-12-30T03:26:18.881Z,20.85
2018-12-30T03:31:22.684Z,20.87
2018-12-30T03:36:26.461Z,20.87
2018-12-30T03:41:30.254Z,20.87
2018-12-30T03:46:34.038Z,20.83
2018-12-30T03:51:37.835Z,20.87
2018-12-30T03:56:41.634Z,20.85
2018-12-30T04:01:45.421Z,20.83
2018-12-30T04:06:49.204Z,20.86
2018-12-30T04:11:52.997Z,20.88
2018-12-30T04:16:56.776Z,20.87
2018-12-30T04:22:00.583Z,20.87
2018-12-30T04:27:04.396Z,20.87
2018-12-30T04:32:08.182Z,20.86
2018-12-30T04:37:11.971Z,20.91
2018-12-30T04:42:15.770Z,20.78
2018-12-30T04:47:19.553Z,20.78
2018-12-30T04:52:25.788Z,20.88
2018-12-30T04:57:28.883Z,20.78
2018-12-30T05:02:32.665Z,20.78
2018-12-30T05:07:36.455Z,20.68
2018-12-30T05:12:40.239Z,20.63
2018-12-30T05:17:44.097Z,20.62
2018-12-30T05:22:47.893Z,20.60
2018-12-30T05:27:51.700Z,20.60
2018-12-30T05:32:55.494Z,20.59
2018-12-30T05:37:59.288Z,20.52
2018-12-30T05:43:03.075Z,20.51
2018-12-30T05:48:06.861Z,20.48
2018-12-30T05:53:10.649Z,20.48
2018-12-30T05:58:14.441Z,20.44
2018-12-30T06:03:18.229Z,20.47
2018-12-30T06:08:22.019Z,20.57
2018-12-30T06:13:25.802Z,20.59
2018-12-30T06:18:29.589Z,20.60
2018-12-30T06:23:33.383Z,20.57
2018-12-30T06:28:37.175Z,20.57
2018-12-30T06:33:40.957Z,20.53
2018-12-30T06:38:44.743Z,20.50
2018-12-30T06:43:48.541Z,20.49
2018-12-30T06:48:52.327Z,20.47
2018-12-30T06:53:56.115Z,20.47
2018-12-30T06:58:59.902Z,20.42
2018-12-30T07:04:03.682Z,20.37
2018-12-30T07:09:07.458Z,20.37
2018-12-30T07:14:11.258Z,20.34
2018-12-30T07:19:15.042Z,20.32
2018-12-30T07:24:18.855Z,20.34
2018-12-30T07:29:22.668Z,20.39
2018-12-30T07:34:26.458Z,20.50
2018-12-30T07:39:30.245Z,20.54
2018-12-30T07:44:34.037Z,20.48
2018-12-30T07:49:37.830Z,20.48
2018-12-30T07:54:41.618Z,20.44
2018-12-30T07:59:45.402Z,20.44
2018-12-30T08:04:49.173Z,20.41
2018-12-30T08:09:52.967Z,20.33
2018-12-30T08:14:56.726Z,20.30
2018-12-30T08:20:00.503Z,20.26
2018-12-30T08:25:04.473Z,17.20
2018-12-30T08:30:08.259Z,17.20
2018-12-30T08:35:12.031Z,19.46
2018-12-30T08:40:15.793Z,20.12
2018-12-30T08:45:19.569Z,20.55
2018-12-30T08:50:23.341Z,20.80
2018-12-30T08:55:27.102Z,20.82
2018-12-30T09:00:30.870Z,20.71
2018-12-30T09:05:34.645Z,20.72
2018-12-30T09:10:38.502Z,20.56
2018-12-30T09:15:42.283Z,20.56
2018-12-30T09:20:46.047Z,20.48
2018-12-30T09:25:49.835Z,20.43
2018-12-30T09:30:53.611Z,20.32
2018-12-30T09:35:57.379Z,20.31
2018-12-30T09:41:01.147Z,20.22
2018-12-30T09:46:04.924Z,20.18
2018-12-30T09:51:08.691Z,20.16
2018-12-30T09:56:12.459Z,20.10
2018-12-30T10:01:16.222Z,20.09
2018-12-30T10:06:19.995Z,20.08
2018-12-30T10:11:23.767Z,20.06
2018-12-30T10:16:27.543Z,20.07
2018-12-30T10:21:31.313Z,20.12
2018-12-30T10:26:35.105Z,20.15
2018-12-30T10:31:38.893Z,20.12
2018-12-30T10:36:42.656Z,20.12
2018-12-30T10:41:46.418Z,20.10
2018-12-30T10:46:50.193Z,20.11
2018-12-30T10:51:53.962Z,20.13
2018-12-30T10:56:57.726Z,20.15
2018-12-30T11:02:01.497Z,20.16
2018-12-30T11:07:05.265Z,20.16
2018-12-30T11:12:09.037Z,20.18
2018-12-30T11:17:12.805Z,20.18
2018-12-30T11:22:16.565Z,20.17
2018-12-30T11:27:20.357Z,20.17
2018-12-30T11:32:24.118Z,20.17
2018-12-30T11:37:27.988Z,20.17
2018-12-30T11:42:31.770Z,20.08
2018-12-30T11:47:35.606Z,20.05
2018-12-30T11:52:39.383Z,20.06
2018-12-30T11:57:43.236Z,20.21
2018-12-30T12:02:47.020Z,20.21
2018-12-30T12:07:50.798Z,20.25
2018-12-30T12:12:54.580Z,20.25
2018-12-30T12:17:58.364Z,20.17
2018-12-30T12:23:02.137Z,20.17
2018-12-30T12:28:05.921Z,20.10
2018-12-30T12:33:09.702Z,20.10
2018-12-30T12:38:13.493Z,19.75
2018-12-30T12:43:17.274Z,19.75
2018-12-30T12:48:21.111Z,20.10
2018-12-30T12:53:24.888Z,20.22
2018-12-30T12:58:28.654Z,20.22
2018-12-30T13:03:32.691Z,20.30
2018-12-30T13:08:36.490Z,20.37
2018-12-30T13:13:40.262Z,20.37
2018-12-30T13:18:44.044Z,20.33
2018-12-30T13:23:47.845Z,20.29
2018-12-30T13:28:51.636Z,20.25
2018-12-30T13:33:55.434Z,20.23
2018-12-30T13:38:59.263Z,20.18
2018-12-30T13:44:03.033Z,20.16
2018-12-30T13:49:06.823Z,20.12
2018-12-30T13:54:10.610Z,20.16
2018-12-30T13:59:14.386Z,20.18
2018-12-30T14:04:18.178Z,20.25
2018-12-30T14:09:21.969Z,20.25
2018-12-30T14:14:25.753Z,20.35
2018-12-30T14:19:29.549Z,20.35
2018-12-30T14:24:33.331Z,20.37
2018-12-30T14:29:37.099Z,20.36
2018-12-30T14:34:40.861Z,20.35
2018-12-30T14:39:44.626Z,20.34
2018-12-30T14:44:48.393Z,20.34
2018-12-30T14:49:52.164Z,20.36
2018-12-30T14:55:03.319Z,20.33
2018-12-30T15:00:01.420Z,20.41
2018-12-30T15:05:06.444Z,20.41
2018-12-30T15:10:10.211Z,20.41
2018-12-30T15:15:13.992Z,20.44
2018-12-30T15:20:17.774Z,20.42
2018-12-30T15:25:21.554Z,20.42
2018-12-30T15:30:25.332Z,20.49
2018-12-30T15:35:29.108Z,20.49
2018-12-30T15:40:32.874Z,20.49
2018-12-30T15:45:36.639Z,20.56
2018-12-30T15:50:40.408Z,20.56
2018-12-30T15:55:44.171Z,20.56
2018-12-30T16:00:47.936Z,20.58
2018-12-30T16:05:57.579Z,20.53
2018-12-30T16:10:57.193Z,20.64
2018-12-30T16:16:01.061Z,20.61
2018-12-30T16:21:04.830Z,20.61
2018-12-30T16:26:08.600Z,20.60
2018-12-30T16:31:12.363Z,20.60
2018-12-30T16:36:16.163Z,20.66
2018-12-30T16:41:19.949Z,20.64
2018-12-30T16:46:23.773Z,20.64
2018-12-30T16:51:27.560Z,20.65
2018-12-30T16:56:31.340Z,20.65
2018-12-30T17:01:35.118Z,20.67
2018-12-30T17:06:38.893Z,20.69
2018-12-30T17:11:42.664Z,20.70
2018-12-30T17:16:46.436Z,20.73
2018-12-30T17:21:50.197Z,20.73
2018-12-30T17:26:53.953Z,20.74
2018-12-30T17:31:57.722Z,20.73
2018-12-30T17:37:01.491Z,20.67
2018-12-30T17:42:05.278Z,20.65
2018-12-30T17:47:09.046Z,20.67
2018-12-30T17:52:12.818Z,20.65
2018-12-30T17:57:16.589Z,20.65
2018-12-30T18:02:20.458Z,20.69
2018-12-30T18:07:24.259Z,20.74
2018-12-30T18:12:28.051Z,20.72
2018-12-30T18:17:31.828Z,20.72
2018-12-30T18:22:35.600Z,20.75
2018-12-30T18:27:39.375Z,20.76
2018-12-30T18:32:43.146Z,20.79
2018-12-30T18:37:46.924Z,20.79
2018-12-30T18:42:50.697Z,20.77
2018-12-30T18:47:54.462Z,20.77
2018-12-30T18:52:58.243Z,20.78
2018-12-30T18:58:05.005Z,20.77
2018-12-30T19:03:08.777Z,20.77
2018-12-30T19:08:12.552Z,20.74
2018-12-30T19:13:16.320Z,20.75
2018-12-30T19:18:20.113Z,20.76
2018-12-30T19:23:23.896Z,20.76
2018-12-30T19:28:27.671Z,20.78
2018-12-30T19:33:31.439Z,20.76
2018-12-30T19:38:35.217Z,20.76
2018-12-30T19:43:38.988Z,20.68
2018-12-30T19:48:42.761Z,20.73
2018-12-30T19:53:46.531Z,20.77
2018-12-30T19:58:50.309Z,20.69
2018-12-30T20:03:55.370Z,20.77
2018-12-30T20:08:59.209Z,20.83
2018-12-30T20:14:03.000Z,20.83
2018-12-30T20:19:06.817Z,20.73
2018-12-30T20:24:10.600Z,20.73
2018-12-30T20:29:14.389Z,20.80
2018-12-30T20:34:18.161Z,20.74
2018-12-30T20:39:21.937Z,20.78
2018-12-30T20:44:25.698Z,20.78
2018-12-30T20:49:29.467Z,20.67
2018-12-30T20:54:33.252Z,20.78
2018-12-30T20:59:37.015Z,20.78
2018-12-30T21:04:40.786Z,20.82
2018-12-30T21:09:44.553Z,20.77
2018-12-30T21:14:48.325Z,20.80
2018-12-30T21:19:52.090Z,20.81
2018-12-30T21:24:55.889Z,20.83
2018-12-30T21:29:59.689Z,20.83
2018-12-30T21:35:03.635Z,20.83
2018-12-30T21:40:07.894Z,20.79
2018-12-30T21:45:11.675Z,20.83
2018-12-30T21:50:15.448Z,20.90
2018-12-30T21:55:19.221Z,20.90
2018-12-30T22:00:22.987Z,20.82
2018-12-30T22:05:26.757Z,20.83
2018-12-30T22:10:30.535Z,20.82
2018-12-30T22:15:34.306Z,20.76
2018-12-30T22:20:38.083Z,20.79
2018-12-30T22:25:42.241Z,20.72
2018-12-30T22:30:46.217Z,20.76
2018-12-30T22:35:49.979Z,20.76
2018-12-30T22:40:53.761Z,20.80
2018-12-30T22:45:57.547Z,20.85
2018-12-30T22:51:01.318Z,20.81
2018-12-30T22:56:05.085Z,20.83
2018-12-30T23:01:12.586Z,20.80
2018-12-30T23:06:16.360Z,20.74
2018-12-30T23:11:20.127Z,20.74
2018-12-30T23:16:23.911Z,20.84
2018-12-30T23:21:27.679Z,20.85
2018-12-30T23:26:31.456Z,20.81
2018-12-30T23:31:35.221Z,20.75
2018-12-30T23:36:38.998Z,20.80
2018-12-30T23:41:42.797Z,20.80
2018-12-30T23:46:46.564Z,20.81
2018-12-30T23:51:50.344Z,20.81
2018-12-30T23:56:54.112Z,20.81
